Kimper, KY (41539)

12:43 AM EDT em 27 de Agosto de 2016 (GMT -0400)
Ratliff Creek | | Change Station

Elev 699 ft 37.50 °N, 82.53 °W | Updated 3 minutes ago

Clear
Céu Limpo
72.9 °F
Aparente 72.9 °F
N
0.0
Vento Variável Vento de Norte
Gusts 0.0 mph

Hoje
Máxima -- | Mínima -- °F
--% Possibilidade de Precip.
Ontem
Máxima -- | Mínima -- °F
Precip. -- pol
Pressão 30.14 pol
Visibilidade 10.0 milhas
Nuvens Céu Limpo
Ponto de Orvalho 72 °F
Humidade 96%
Chuva 0.00 pol
Altura de Neve Não disponível
6:55 AM 8:04 PM
Quarto minguante, 28% visible
METAR KSJS 270435Z AUTO 12003KT 10SM CLR 24/23 A3014 RMK AO2 T02360232
Pressão 30.14 pol
Visibilidade 10.0 milhas
Nuvens Céu Limpo
Ponto de Orvalho 72 °F
Humidade 96%
Chuva 0.00 pol
Altura de Neve Não disponível
6:55 AM 8:04 PM
Quarto minguante, 28% visible
METAR KSJS 270435Z AUTO 12003KT 10SM CLR 24/23 A3014 RMK AO2 T02360232

10-Day Weather Forecast

Almanac

Astronomia

Aug. 27, 2016 Nascer Pôr
Hora atual
Crepúsculo civil
Crepúsculo náutico
Crepúsculo astronómico
Lua
Comprimento da luz visível
Duração do Dia
Tomorrow will be .
, % of the Moon is Illuminated

Extremos de Hoje

situação na parte mais alta situação na parte mais baixa

Community

WunderPhotos

Upload Photos

1,935,299 fotografias inseridas!

WunderBlog® & News

Nearby

Qualidade do Ar

  Qualidade do Ar Índice da Q.A. Poluente
Not available.

Altura da Neve

Estação altura Altitude

Actividade Sísmisca

Cidade Distância Mag. Hora & Data
Mínima magnitude apresentada é 2.5.

Temperaturas das Águas Costeiras

Local Temperatura

Stations

Estações Meteorológicas Próximas

Localização da Estação Temp. Sensação Térmica Ponto de Orvalho Humidade Vento Precip. Elev Actualizado Tipo
                   

Watches & Warnings

There are currently no watches in effect.